Flight Track Log - Related Links

Times and Time Zones

All times are in EDT time to prevent confusion due to time zone crossing. See the VOZ1165 flight status page for this flight to view local times or setup timezone preferences in your user account.

Time Position Orientation Groundspeed Altitude Reporting Facility
EDT Latitude Longitude Course Direction KTS MPH feet Rate Location/Type
Wed 09:54:57 PM -33.9510 151.1890 360° North 146 168  Level FlightAware ADS-B
Wed 09:54:58 PM -33.9488 151.1882 360° North 142 163 500 3,600 Climbing Aus ATC (RADAR)
Wed 09:55:22 PM -33.9304 151.1912 360° North 156 180 1,500 1,091 Climbing Aus ATC (RADAR)
Wed 09:55:42 PM -33.9200 151.2000 360° North 201 231 1,300 1,467 Descending FlightAware ADS-B
Wed 09:56:07 PM -33.8990 151.2190 37° Northeast 207 238 2,600 2,291 Climbing FlightAware ADS-B
Wed 09:56:37 PM -33.8720 151.2410 34° Northeast 254 292 3,400 1,400 Climbing FlightAware ADS-B
Wed 09:57:07 PM -33.8420 151.2670 36° Northeast 285 328 4,000 1,500 Climbing FlightAware ADS-B
Wed 09:57:17 PM -33.8330 151.2760 40° Northeast 304 350 4,400 3,120 Climbing FlightAware ADS-B
Wed 09:57:32 PM -33.8190 151.3020 57° Northeast 304 350 5,300 3,200 Climbing FlightAware ADS-B
Wed 09:57:47 PM -33.8120 151.3270 71° East 308 354 6,000 2,800 Climbing FlightAware ADS-B
Wed 09:58:17 PM -33.7960 151.3770 69° East 319 367 7,400 2,700 Climbing FlightAware ADS-B
Wed 09:58:27 PM -33.7870 151.3930 56° Northeast 331 381 7,800 2,700 Climbing FlightAware ADS-B
Wed 09:58:57 PM -33.7580 151.4350 50° Northeast 341 392 9,200 3,200 Climbing FlightAware ADS-B
Wed 09:59:12 PM -33.7380 151.4520 35° Northeast 339 390 10,200 4,473 Climbing FlightAware ADS-B
Wed 09:59:52 PM -33.6755 151.4793 35° Northeast 334 384 13,300 3,750 Climbing Aus ATC (RADAR)
Wed 09:59:52 PM -33.6810 151.4770 35° Northeast 342 394 12,700 4,080 Descending FlightAware ADS-B
Wed 10:00:17 PM -33.6379 151.4943 35° Northeast 335 386 15,000 3,867 Climbing Aus ATC (RADAR)
Wed 10:00:37 PM -33.6120 151.5040 35° Northeast 341 392 15,600 3,429 Climbing FlightAware ADS-B
Wed 10:00:52 PM -33.5842 151.5155 35° Northeast 343 395 17,000 3,000 Climbing Aus ATC (RADAR)
Wed 10:01:17 PM -33.5560 151.5270 35° Northeast 357 411 17,600 3,231 Climbing FlightAware ADS-B
Wed 10:01:57 PM -33.4806 151.5561 35° Northeast 360 414 20,500 2,700 Climbing Aus ATC (RADAR)
Wed 10:01:57 PM -33.5000 151.5480 35° Northeast 366 421 19,400 2,880 Descending FlightAware ADS-B
Wed 10:02:22 PM -33.4396 151.5723 35° Northeast 366 421 21,700 3,150 Climbing Aus ATC (RADAR)
Wed 10:02:37 PM -33.4300 151.5760 35° Northeast 377 434 21,500 2,615 Descending FlightAware ADS-B
Wed 10:03:01 PM -33.3752 151.5974 35° Northeast 381 438 23,400 2,667 Climbing Aus ATC (RADAR)
Wed 10:03:22 PM -33.3530 151.6060 35° Northeast 389 448 23,500 2,478 Climbing FlightAware ADS-B
Wed 10:03:47 PM -33.2944 151.6292 35° Northeast 391 450 25,300 2,400 Climbing Aus ATC (RADAR)
Wed 10:04:07 PM -33.2740 151.6370 35° Northeast 402 463 25,300 2,057 Level FlightAware ADS-B
Wed 10:04:22 PM -33.2318 151.6534 35° Northeast 402 463 26,500 2,100 Climbing Aus ATC (RADAR)
Wed 10:04:47 PM -33.2010 151.6650 35° Northeast 415 478 26,700 2,000 Climbing FlightAware ADS-B
Wed 10:05:07 PM -33.1488 151.6858 35° Northeast 417 480 28,000 1,371 Climbing Aus ATC (RADAR)
Wed 10:05:22 PM -33.1510 151.6850 35° Northeast 424 488 27,500 1,385 Descending FlightAware ADS-B
Wed 10:06:12 PM -33.0320 151.7310 18° North 439 505 29,500 2,541 Climbing FlightAware ADS-B
Wed 10:06:47 PM -32.9557 151.7608 18° North 440 506 31,100 1,800 Climbing Aus ATC (RADAR)
Wed 10:06:52 PM -32.9570 151.7600 18° North 446 513 30,700 1,680 Descending FlightAware ADS-B
Wed 10:07:12 PM -32.9064 151.7796 18° North 444 511 31,800 1,467 Climbing Aus ATC (RADAR)
Wed 10:07:37 PM -32.8660 151.7950 18° North 457 526 31,800 1,143 Level FlightAware ADS-B
Wed 10:08:15 PM -32.7780 151.8289 18° North 464 534 33,000 1,050 Climbing Aus ATC (RADAR)
Wed 10:08:17 PM -32.7880 151.8250 18° North 469 540 32,500 2,217 Descending FlightAware ADS-B
Wed 10:09:01 PM -32.6806 151.8662 18° North 465 535 34,700 2,133 Climbing Aus ATC (RADAR)
Wed 10:09:02 PM -32.6880 151.8630 18° North 464 534 34,100 2,057 Descending FlightAware ADS-B
Wed 10:09:36 PM -32.6098 151.8934 18° North 458 527 35,900 2,100 Climbing Aus ATC (RADAR)
Wed 10:09:42 PM -32.6080 151.8940 18° North 457 526 35,500 1,102 Descending FlightAware ADS-B
Wed 10:10:25 PM -32.5129 151.9308 18° North 459 528 36,800 1,200 Climbing Aus ATC (RADAR)
Wed 10:10:37 PM -32.5000 151.9360 18° North 463 533 36,600 211 Descending FlightAware ADS-B
Wed 10:11:22 PM -32.4040 151.9730 18° North 461 531 37,000 300 Climbing FlightAware ADS-B
Wed 10:11:57 PM -32.3350 151.9990 18° North 462 532 37,000 324 Level FlightAware ADS-B
Wed 10:12:36 PM -32.2442 152.0327 18° North 461 531 37,400  Climbing Aus ATC (RADAR)
Wed 10:12:37 PM -32.2530 152.0300 18° North 462 532 37,000  Descending FlightAware ADS-B
Wed 10:13:01 PM -32.1936 152.0521 18° North 461 531 37,400  Climbing Aus ATC (RADAR)
Wed 10:13:27 PM -32.1540 152.0670 18° North 462 532 37,000 -364 Descending FlightAware ADS-B
Wed 10:14:07 PM -32.0720 152.0980 18° North 462 532 37,000  Level FlightAware ADS-B
Wed 10:14:52 PM -31.9830 152.1520 27° Northeast 460 529 37,000 -141 Level FlightAware ADS-B
Wed 10:15:32 PM -31.9270 152.2240 48° Northeast 457 526 36,800 -1,154 Descending FlightAware ADS-B
Wed 10:16:10 PM -31.8690 152.3015 48° Northeast 438 504 35,500 -2,400 Descending Aus ATC (RADAR)
Wed 10:16:12 PM -31.8730 152.2960 48° Northeast 456 525 35,200 -3,447 Descending FlightAware ADS-B
Wed 10:16:57 PM -31.8080 152.3820 48° Northeast 464 534 32,800 -2,795 Descending FlightAware ADS-B
Wed 10:17:25 PM -31.7627 152.4411 48° Northeast 441 507 31,800 -2,318 Descending Aus ATC (RADAR)
Wed 10:17:41 PM -31.7385 152.4719 47° Northeast 454 522 31,100 -2,813 Descending Aus ATC (RADAR)
Wed 10:17:57 PM -31.7260 152.4890 47° Northeast 447 514 30,300 -2,400 Descending FlightAware ADS-B
Wed 10:18:16 PM -31.6909 152.5351 47° Northeast 443 510 29,700 -2,400 Descending Aus ATC (RADAR)
Wed 10:18:37 PM -31.6700 152.5630 47° Northeast 436 502 28,700 -2,318 Descending FlightAware ADS-B
Wed 10:19:00 PM -31.6305 152.6136 47° Northeast 433 498 28,000 -2,400 Descending Aus ATC (RADAR)
Wed 10:19:17 PM -31.6140 152.6350 47° Northeast 419 482 27,100 -2,154 Descending FlightAware ADS-B
Wed 10:19:39 PM -31.5811 152.6782 47° Northeast 405 466 26,600 -600 Descending Aus ATC (RADAR)
Wed 10:19:57 PM -31.5690 152.6940 47° Northeast 419 482 26,700 -2,217 Climbing FlightAware ADS-B
Wed 10:20:25 PM -31.5212 152.7556 47° Northeast 406 467 24,900  Descending Aus ATC (RADAR)
Wed 10:20:37 PM -31.5250 152.7510 47° Northeast 419 482 26,700 2,077 Climbing FlightAware ADS-B
Wed 10:21:17 PM -31.4810 152.8080 48° Northeast 419 482 26,700  Level FlightAware ADS-B
Wed 10:22:07 PM -31.4260 152.8800 48° Northeast 419 482 26,700 -5,000 Level FlightAware ADS-B
Wed 10:22:35 PM -31.3308 152.8919 48° Northeast 379 436 20,200  Descending Aus ATC (RADAR)
Wed 10:22:47 PM -31.3820 152.9380 48° Northeast 419 482 26,700 7,500 Climbing FlightAware ADS-B
Wed 10:23:27 PM -31.3380 152.9950 48° Northeast 419 482 26,700 -6,306 Level FlightAware ADS-B
Wed 10:24:25 PM -31.1491 152.9332 48° Northeast 355 409 16,400 -7,419 Descending Aus ATC (RADAR)
Wed 10:25:00 PM -31.0930 152.9455 11° North 350 403 15,200 -2,025 Descending Aus ATC (RADAR)
Wed 10:25:45 PM -31.0227 152.9620 11° North 345 397 13,700 -1,971 Descending Aus ATC (RADAR)
Wed 10:26:10 PM -30.9844 152.9705 11° North 339 390 12,900 -2,000 Descending Aus ATC (RADAR)
Wed 10:27:30 PM -30.8620 152.9983 11° North 334 384 10,200 -1,768 Descending Aus ATC (RADAR)
Wed 10:27:45 PM -30.8391 153.0030 10° North 333 383 10,100 -720 Descending Aus ATC (RADAR)
Wed 10:28:20 PM -30.7914 153.0140 11° North 311 358 9,600 -1,482 Descending Aus ATC (RADAR)
Wed 10:29:10 PM -30.7257 153.0298 12° North 295 339 8,000 -1,786 Descending Aus ATC (RADAR)
Wed 10:29:44 PM -30.6747 153.0370 North 313 360 7,100 -1,588 Descending Aus ATC (RADAR)
Wed 10:32:17 PM -30.4907 153.0777 360° North -2,421 Descending Aus ATC (Calculated)
Wed 10:32:35 PM -30.4907 153.0777 360° North 200 667 Climbing Aus ATC (Calculated)
Wed 10:32:36 PM -30.4907 153.0777 11° North -12,000 Descending Aus ATC (Calculated)
Wed 10:34:00 PM -30.3510 153.1095 11° North  Level Estimated
Wed 10:35:00 PM -30.3206 153.1164 11° North  Level Estimated

Login

Don't have an account? Register now (free) for customized features, flight alerts, and more!